createdAt,value
2022-11-13T00:03:46.069Z,23.67
2022-11-13T00:06:13.354Z,25.27
2022-11-13T00:08:39.918Z,18.63
2022-11-13T00:11:11.775Z,23.88
2022-11-13T00:13:38.209Z,22.17
2022-11-13T00:16:09.605Z,22.10
2022-11-13T00:18:36.751Z,21.27
2022-11-13T00:21:06.810Z,22.67
2022-11-13T00:23:34.735Z,23.58
2022-11-13T00:26:19.078Z,22.65
2022-11-13T00:28:46.971Z,24.67
2022-11-13T00:31:15.591Z,27.15
2022-11-13T00:36:29.254Z,42.17
2022-11-13T00:38:56.416Z,60.90
2022-11-13T00:41:24.220Z,61.47
2022-11-13T00:43:51.129Z,65.07
2022-11-13T00:46:17.568Z,80.57
2022-11-13T00:48:44.027Z,100.85
2022-11-13T00:51:10.905Z,81.93
2022-11-13T00:53:37.367Z,82.30
2022-11-13T00:56:04.413Z,56.10
2022-11-13T00:58:31.221Z,51.17
2022-11-13T01:01:05.479Z,55.22
2022-11-13T01:03:31.842Z,49.15
2022-11-13T01:05:58.364Z,47.83
2022-11-13T01:08:24.923Z,47.90
2022-11-13T01:10:53.772Z,37.77
2022-11-13T01:13:20.467Z,34.17
2022-11-13T01:15:46.884Z,25.92
2022-11-13T01:18:13.633Z,27.77
2022-11-13T01:20:40.158Z,27.13
2022-11-13T01:23:06.581Z,23.92
2022-11-13T01:25:33.427Z,24.63
2022-11-13T01:27:59.818Z,25.38
2022-11-13T01:30:26.512Z,23.17
2022-11-13T01:32:52.961Z,23.07
2022-11-13T01:35:19.343Z,23.10
2022-11-13T01:37:45.696Z,21.00
2022-11-13T01:40:13.646Z,26.55
2022-11-13T01:42:40.430Z,23.92
2022-11-13T01:45:45.112Z,21.38
2022-11-13T01:48:12.361Z,18.73
2022-11-13T01:50:39.158Z,22.85
2022-11-13T01:53:06.494Z,20.90
2022-11-13T01:55:32.938Z,19.08
2022-11-13T01:58:00.223Z,20.10
2022-11-13T02:00:26.714Z,18.15
2022-11-13T02:02:53.158Z,19.45
2022-11-13T02:05:19.664Z,19.73
2022-11-13T02:07:46.865Z,18.60
2022-11-13T02:10:13.527Z,17.42
2022-11-13T02:12:43.602Z,21.17
2022-11-13T02:15:10.458Z,19.20
2022-11-13T02:17:48.686Z,24.92
2022-11-13T02:20:15.927Z,20.33
2022-11-13T02:22:51.043Z,22.70
2022-11-13T02:25:19.460Z,21.55
2022-11-13T02:27:48.760Z,20.80
2022-11-13T02:30:28.077Z,23.77
2022-11-13T02:32:57.397Z,29.67
2022-11-13T02:35:33.015Z,29.45
2022-11-13T02:38:02.124Z,24.70
2022-11-13T02:40:28.853Z,25.55
2022-11-13T02:42:55.463Z,23.95
2022-11-13T02:45:22.349Z,19.60
2022-11-13T02:47:49.687Z,21.48
2022-11-13T02:50:17.403Z,15.68
2022-11-13T02:52:43.842Z,16.00
2022-11-13T02:55:10.234Z,17.05
2022-11-13T02:57:36.593Z,16.30
2022-11-13T03:00:07.876Z,19.10
2022-11-13T03:02:36.994Z,15.98
2022-11-13T03:05:12.493Z,18.15
2022-11-13T03:07:39.700Z,16.58
2022-11-13T03:10:06.735Z,15.85
2022-11-13T03:12:34.055Z,21.00
2022-11-13T03:15:00.833Z,17.75
2022-11-13T03:17:27.238Z,16.93
2022-11-13T03:19:53.595Z,19.05
2022-11-13T03:22:19.997Z,16.92
2022-11-13T03:24:46.380Z,16.90
2022-11-13T03:27:12.789Z,16.38
2022-11-13T03:29:39.196Z,18.30
2022-11-13T03:32:05.992Z,17.08
2022-11-13T03:34:32.428Z,17.67
2022-11-13T03:36:58.812Z,15.75
2022-11-13T03:39:25.292Z,16.10
2022-11-13T03:41:51.681Z,14.90
2022-11-13T03:44:18.053Z,13.48
2022-11-13T03:46:44.474Z,16.98
2022-11-13T03:49:10.852Z,17.85
2022-11-13T03:51:37.224Z,15.40
2022-11-13T03:54:03.832Z,17.92
2022-11-13T03:56:30.222Z,17.33
2022-11-13T03:58:56.698Z,14.75
2022-11-13T04:01:23.100Z,16.52
2022-11-13T04:03:49.562Z,14.98
2022-11-13T04:06:15.968Z,18.13
2022-11-13T04:08:42.347Z,17.90
2022-11-13T04:11:10.604Z,18.20
2022-11-13T04:13:37.144Z,17.73
2022-11-13T04:16:04.165Z,20.15
2022-11-13T04:18:30.923Z,21.20
2022-11-13T04:21:02.003Z,20.58
2022-11-13T04:23:28.809Z,19.33
2022-11-13T04:25:55.595Z,21.13
2022-11-13T04:28:23.288Z,17.55
2022-11-13T04:30:49.936Z,18.73
2022-11-13T04:33:16.376Z,19.00
2022-11-13T04:35:45.641Z,20.58
2022-11-13T04:38:12.874Z,18.92
2022-11-13T04:40:40.116Z,22.02
2022-11-13T04:43:06.945Z,24.95
2022-11-13T04:45:34.211Z,19.27
2022-11-13T04:48:00.693Z,20.70
2022-11-13T04:50:27.097Z,23.60
2022-11-13T04:52:53.625Z,22.70
2022-11-13T04:55:20.101Z,20.30
2022-11-13T04:57:46.654Z,21.00
2022-11-13T05:00:13.493Z,19.95
2022-11-13T05:02:39.936Z,23.63
2022-11-13T05:05:06.714Z,20.80
2022-11-13T05:07:33.139Z,23.27
2022-11-13T05:09:59.576Z,38.40
2022-11-13T05:12:26.134Z,38.90
2022-11-13T05:14:52.533Z,35.80
2022-11-13T05:17:18.955Z,21.70
2022-11-13T05:19:45.342Z,21.13
2022-11-13T05:22:11.842Z,21.88
2022-11-13T05:24:38.237Z,28.00
2022-11-13T05:27:04.623Z,17.55
2022-11-13T05:29:31.309Z,23.55
2022-11-13T05:31:57.648Z,28.57
2022-11-13T05:34:24.179Z,26.98
2022-11-13T05:36:50.562Z,31.95
2022-11-13T05:39:16.932Z,37.80
2022-11-13T05:41:43.348Z,39.88
2022-11-13T05:44:09.728Z,37.45
2022-11-13T05:46:36.129Z,30.08
2022-11-13T05:49:03.017Z,32.55
2022-11-13T05:51:32.177Z,30.63
2022-11-13T05:53:59.193Z,27.45
2022-11-13T05:56:32.295Z,26.10
2022-11-13T05:58:59.995Z,28.77
2022-11-13T06:01:36.547Z,22.75
2022-11-13T06:04:04.094Z,23.00
2022-11-13T06:06:32.686Z,34.13
2022-11-13T06:09:00.720Z,26.90
2022-11-13T06:11:29.354Z,23.00
2022-11-13T06:13:57.005Z,19.08
2022-11-13T06:18:54.345Z,30.38
2022-11-13T06:21:22.781Z,51.78
2022-11-13T06:23:49.406Z,36.75
2022-11-13T06:26:24.624Z,32.10
2022-11-13T06:28:51.476Z,85.65
2022-11-13T06:31:20.461Z,34.45
2022-11-13T06:33:47.067Z,18.10
2022-11-13T06:36:15.995Z,20.87
2022-11-13T06:38:43.225Z,16.75
2022-11-13T06:41:12.254Z,20.42
2022-11-13T06:43:38.882Z,20.10
2022-11-13T06:46:08.430Z,17.37
2022-11-13T06:48:34.850Z,15.75
2022-11-13T06:51:06.437Z,15.70
2022-11-13T06:53:33.496Z,18.85
2022-11-13T06:56:00.928Z,23.23
2022-11-13T06:58:27.838Z,20.42
2022-11-13T07:00:54.480Z,18.38
2022-11-13T07:03:23.280Z,22.92
2022-11-13T07:05:50.498Z,23.42
2022-11-13T07:08:17.572Z,33.83
2022-11-13T07:10:44.496Z,36.33
2022-11-13T07:13:10.878Z,24.98
2022-11-13T07:15:38.847Z,33.58
2022-11-13T07:18:06.697Z,28.55
2022-11-13T07:20:33.764Z,28.80
2022-11-13T07:23:01.646Z,19.17
2022-11-13T07:25:28.927Z,10.20
2022-11-13T07:27:55.345Z,10.93
2022-11-13T07:30:22.366Z,8.40
2022-11-13T07:32:49.163Z,7.93
2022-11-13T07:35:16.767Z,7.68
2022-11-13T07:40:11.228Z,9.82
2022-11-13T07:45:05.430Z,8.30
2022-11-13T07:47:31.829Z,11.32
2022-11-13T07:50:05.605Z,9.65
2022-11-13T07:52:34.668Z,9.07
2022-11-13T07:55:01.086Z,8.75
2022-11-13T07:57:27.489Z,8.13
2022-11-13T07:59:53.948Z,9.23
2022-11-13T08:02:25.193Z,6.68
2022-11-13T08:04:53.022Z,7.18
2022-11-13T08:07:19.450Z,8.32
2022-11-13T08:09:45.890Z,9.40
2022-11-13T08:12:12.253Z,9.85
2022-11-13T08:14:38.636Z,8.80
2022-11-13T08:17:05.030Z,8.02
2022-11-13T08:19:31.457Z,7.65
2022-11-13T08:21:57.833Z,9.30
2022-11-13T08:24:24.231Z,9.32
2022-11-13T08:26:50.653Z,9.35
2022-11-13T08:29:17.213Z,8.65
2022-11-13T08:31:43.644Z,7.20
2022-11-13T08:34:10.075Z,11.15
2022-11-13T08:36:36.500Z,9.52
2022-11-13T08:39:03.005Z,8.73
2022-11-13T08:43:57.121Z,8.60
2022-11-13T08:46:23.539Z,8.85
2022-11-13T08:48:49.997Z,10.52
2022-11-13T08:51:16.468Z,9.02
2022-11-13T08:53:42.831Z,10.88
2022-11-13T08:56:09.177Z,8.93
2022-11-13T08:58:35.569Z,8.73
2022-11-13T09:01:03.487Z,12.43
2022-11-13T09:03:30.005Z,9.68
2022-11-13T09:05:56.467Z,9.70
2022-11-13T09:08:22.843Z,13.60
2022-11-13T09:10:49.271Z,9.30
2022-11-13T09:13:15.719Z,10.88
2022-11-13T09:15:42.282Z,12.32
2022-11-13T09:18:09.831Z,12.20
2022-11-13T09:23:05.123Z,10.25
2022-11-13T09:25:37.318Z,8.63
2022-11-13T09:28:05.362Z,10.27
2022-11-13T09:30:31.786Z,10.25
2022-11-13T09:33:00.090Z,9.82
2022-11-13T09:35:36.563Z,10.98
2022-11-13T09:38:10.480Z,10.40
2022-11-13T09:40:41.506Z,8.23
2022-11-13T09:43:23.169Z,7.45
2022-11-13T09:45:54.058Z,8.63
2022-11-13T09:48:40.157Z,7.93
2022-11-13T09:51:16.453Z,10.63
2022-11-13T09:53:43.470Z,12.90
2022-11-13T09:56:24.597Z,10.57
2022-11-13T09:59:01.173Z,8.75
2022-11-13T10:01:58.379Z,10.60
2022-11-13T10:04:46.603Z,8.07
2022-11-13T10:07:26.945Z,9.40
2022-11-13T10:10:04.326Z,8.73
2022-11-13T10:17:44.067Z,8.05
2022-11-13T10:20:36.629Z,10.65
2022-11-13T10:23:16.418Z,10.75
2022-11-13T10:25:44.335Z,7.63
2022-11-13T10:31:11.981Z,10.50
2022-11-13T10:33:38.775Z,9.77
2022-11-13T10:36:19.357Z,8.88
2022-11-13T10:38:58.387Z,10.38
2022-11-13T10:41:24.781Z,8.77
2022-11-13T10:44:23.279Z,8.25
2022-11-13T10:46:49.906Z,11.43
2022-11-13T10:49:21.992Z,9.77
2022-11-13T10:51:59.072Z,11.55
2022-11-13T10:54:27.350Z,11.80
2022-11-13T10:56:58.287Z,14.55
2022-11-13T10:59:26.136Z,13.32
2022-11-13T11:01:52.552Z,13.70
2022-11-13T11:04:27.577Z,14.05
2022-11-13T11:09:43.394Z,10.18
2022-11-13T11:12:30.175Z,17.23
2022-11-13T11:14:57.410Z,11.27
2022-11-13T11:17:35.812Z,11.68
2022-11-13T11:20:13.660Z,12.63
2022-11-13T11:22:41.198Z,10.48
2022-11-13T11:27:49.743Z,14.98
2022-11-13T11:30:23.043Z,13.77
2022-11-13T11:33:25.802Z,13.73
2022-11-13T11:36:08.963Z,13.48
2022-11-13T11:38:58.024Z,11.45
2022-11-13T11:41:30.757Z,12.00
2022-11-13T11:44:10.859Z,11.88
2022-11-13T11:46:37.330Z,14.50
2022-11-13T11:49:03.721Z,12.80
2022-11-13T11:51:42.893Z,12.73
2022-11-13T11:54:28.159Z,12.98
2022-11-13T11:57:04.044Z,12.85
2022-11-13T11:59:40.623Z,12.68
2022-11-13T12:02:29.852Z,12.60
2022-11-13T12:05:19.543Z,12.45
2022-11-13T12:07:52.489Z,15.30
2022-11-13T12:10:43.386Z,13.02
2022-11-13T12:13:28.282Z,15.25
2022-11-13T12:16:06.732Z,14.52
2022-11-13T12:18:43.224Z,14.95
2022-11-13T12:21:31.754Z,16.33
2022-11-13T12:24:37.463Z,15.23
2022-11-13T12:27:23.862Z,18.05
2022-11-13T12:30:09.057Z,16.48
2022-11-13T12:32:35.370Z,14.38
2022-11-13T12:35:11.712Z,15.48
2022-11-13T12:38:01.498Z,16.02
2022-11-13T12:40:30.140Z,15.82
2022-11-13T12:43:12.188Z,19.20
2022-11-13T12:45:38.739Z,16.25
2022-11-13T12:48:35.965Z,18.33
2022-11-13T12:51:07.912Z,15.90
2022-11-13T12:53:49.031Z,16.65
2022-11-13T12:56:30.440Z,18.80
2022-11-13T12:59:24.221Z,18.48
2022-11-13T13:02:01.150Z,14.95
2022-11-13T13:04:40.469Z,17.60
2022-11-13T13:07:28.957Z,17.23
2022-11-13T13:10:10.838Z,17.33
2022-11-13T13:12:51.538Z,15.63
2022-11-13T13:15:32.810Z,16.58
2022-11-13T13:18:04.429Z,16.77
2022-11-13T13:20:34.771Z,19.27
2022-11-13T13:23:05.973Z,15.65
2022-11-13T13:25:36.377Z,17.75
2022-11-13T13:28:08.449Z,16.05
2022-11-13T13:30:56.862Z,16.90
2022-11-13T13:33:42.922Z,15.50
2022-11-13T13:36:20.571Z,17.55
2022-11-13T13:39:02.784Z,17.33
2022-11-13T13:41:48.456Z,16.33
2022-11-13T13:44:28.925Z,18.40
2022-11-13T13:46:57.214Z,17.23
2022-11-13T13:49:25.055Z,24.02
2022-11-13T13:51:53.569Z,17.38
2022-11-13T13:54:25.416Z,14.85
2022-11-13T13:56:52.752Z,15.43
2022-11-13T13:59:31.977Z,16.80
2022-11-13T14:02:01.052Z,14.27
2022-11-13T14:04:34.125Z,15.13
2022-11-13T14:07:06.167Z,22.55
2022-11-13T14:09:32.579Z,15.45
2022-11-13T14:12:09.587Z,13.88
2022-11-13T14:14:39.266Z,15.55
2022-11-13T14:17:06.899Z,14.55
2022-11-13T14:19:33.272Z,19.38
2022-11-13T14:22:02.436Z,37.85
2022-11-13T14:24:48.079Z,33.55
2022-11-13T14:27:20.191Z,27.80
2022-11-13T14:29:58.368Z,22.05
2022-11-13T14:32:44.231Z,15.02
2022-11-13T14:35:21.879Z,17.40
2022-11-13T14:37:48.718Z,15.77
2022-11-13T14:40:23.302Z,16.42
2022-11-13T14:43:02.297Z,17.45
2022-11-13T14:45:31.271Z,16.08
2022-11-13T14:48:19.296Z,14.32
2022-11-13T14:50:59.253Z,17.52
2022-11-13T14:53:29.196Z,20.60
2022-11-13T14:55:58.455Z,59.67
2022-11-13T14:58:33.864Z,35.72
2022-11-13T15:01:14.599Z,25.45
2022-11-13T15:03:40.993Z,19.02
2022-11-13T15:06:20.420Z,18.13
2022-11-13T15:08:47.771Z,18.55
2022-11-13T15:11:15.757Z,19.98
2022-11-13T15:13:42.615Z,23.00
2022-11-13T15:16:15.023Z,19.40
2022-11-13T15:18:53.984Z,22.75
2022-11-13T15:21:20.455Z,22.80
2022-11-13T15:23:46.856Z,22.98
2022-11-13T15:26:13.527Z,25.33
2022-11-13T15:28:40.190Z,97.13
2022-11-13T15:31:44.779Z,131.57
2022-11-13T15:34:12.522Z,36.70
2022-11-13T15:36:39.361Z,27.42
2022-11-13T15:39:09.380Z,37.92
2022-11-13T15:41:37.947Z,31.77
2022-11-13T15:44:13.358Z,28.55
2022-11-13T15:46:40.101Z,26.48
2022-11-13T15:49:06.862Z,29.38
2022-11-13T15:51:42.049Z,28.60
2022-11-13T15:54:20.961Z,62.78
2022-11-13T15:56:47.650Z,26.05
2022-11-13T15:59:14.763Z,28.27
2022-11-13T16:01:41.847Z,29.73
2022-11-13T16:04:09.414Z,31.83
2022-11-13T16:06:36.262Z,32.15
2022-11-13T16:09:04.327Z,28.05
2022-11-13T16:11:33.065Z,28.90
2022-11-13T16:14:00.028Z,31.92
2022-11-13T16:16:31.538Z,38.95
2022-11-13T16:19:00.400Z,33.85
2022-11-13T16:21:27.917Z,31.25
2022-11-13T16:23:54.327Z,32.88
2022-11-13T16:26:23.513Z,37.20
2022-11-13T16:31:41.609Z,37.00
2022-11-13T16:34:08.039Z,35.80
2022-11-13T16:36:34.643Z,32.30
2022-11-13T16:39:01.114Z,34.03
2022-11-13T16:41:27.518Z,49.30
2022-11-13T16:43:54.028Z,39.65
2022-11-13T16:46:31.385Z,39.92
2022-11-13T16:51:24.909Z,57.38
2022-11-13T16:53:51.352Z,77.77
2022-11-13T16:56:28.836Z,80.85
2022-11-13T16:58:55.756Z,70.40
2022-11-13T17:01:22.863Z,75.90
2022-11-13T17:03:49.322Z,54.40
2022-11-13T17:06:27.670Z,53.28
2022-11-13T17:08:56.004Z,101.68
2022-11-13T17:11:27.084Z,127.53
2022-11-13T17:13:57.179Z,60.30
2022-11-13T17:16:25.216Z,80.85
2022-11-13T17:18:53.273Z,84.15
2022-11-13T17:21:25.362Z,76.55
2022-11-13T17:23:58.569Z,71.60
2022-11-13T17:26:25.789Z,65.75
2022-11-13T17:28:52.912Z,57.05
2022-11-13T17:31:20.362Z,53.85
2022-11-13T17:33:46.947Z,50.95
2022-11-13T17:36:13.561Z,41.45
2022-11-13T17:38:40.249Z,37.63
2022-11-13T17:41:11.599Z,55.70
2022-11-13T17:43:39.748Z,74.05
2022-11-13T17:46:08.720Z,106.30
2022-11-13T17:48:35.499Z,84.22
2022-11-13T17:51:04.474Z,65.53
2022-11-13T17:53:31.885Z,79.85
2022-11-13T17:58:29.387Z,74.18
2022-11-13T18:01:05.491Z,64.60
2022-11-13T18:03:32.539Z,55.97
2022-11-13T18:06:03.156Z,48.67
2022-11-13T18:08:29.723Z,55.22
2022-11-13T18:10:56.131Z,60.47
2022-11-13T18:13:22.635Z,88.15
2022-11-13T18:15:49.047Z,74.72
2022-11-13T18:18:15.499Z,94.97
2022-11-13T18:20:42.194Z,61.40
2022-11-13T18:23:08.651Z,49.50
2022-11-13T18:25:39.454Z,54.72
2022-11-13T18:28:06.261Z,41.47
2022-11-13T18:30:32.816Z,47.63
2022-11-13T18:32:59.230Z,50.85
2022-11-13T18:35:25.631Z,58.30
2022-11-13T18:37:53.116Z,50.92
2022-11-13T18:40:19.566Z,46.55
2022-11-13T18:42:46.155Z,54.85
2022-11-13T18:45:16.191Z,66.65
2022-11-13T18:47:42.637Z,67.10
2022-11-13T18:50:09.498Z,60.47
2022-11-13T18:52:35.966Z,60.38
2022-11-13T18:55:02.432Z,49.58
2022-11-13T18:57:28.826Z,67.85
2022-11-13T18:59:55.246Z,57.75
2022-11-13T19:02:21.734Z,72.55
2022-11-13T19:04:48.381Z,70.38
2022-11-13T19:07:14.846Z,51.85
2022-11-13T19:09:45.963Z,68.40
2022-11-13T19:12:12.494Z,66.22
2022-11-13T19:14:38.979Z,52.90
2022-11-13T19:17:05.485Z,73.28
2022-11-13T19:19:31.894Z,42.05
2022-11-13T19:21:58.361Z,49.47
2022-11-13T19:24:24.783Z,40.42
2022-11-13T19:26:51.218Z,38.30
2022-11-13T19:29:18.171Z,38.83
2022-11-13T19:31:46.529Z,39.88
2022-11-13T19:34:13.441Z,37.03
2022-11-13T19:36:41.351Z,40.22
2022-11-13T19:39:09.741Z,35.80
2022-11-13T19:41:36.199Z,35.50
2022-11-13T19:44:02.647Z,34.72
2022-11-13T19:46:31.868Z,35.70
2022-11-13T19:48:58.304Z,36.42
2022-11-13T19:51:26.249Z,35.17
2022-11-13T19:53:58.389Z,34.03
2022-11-13T19:56:28.490Z,37.00
2022-11-13T19:58:56.081Z,33.40
2022-11-13T20:01:25.039Z,36.72
2022-11-13T20:03:56.176Z,33.67
2022-11-13T20:06:23.353Z,32.85
2022-11-13T20:08:49.914Z,34.08
2022-11-13T20:11:16.453Z,33.22
2022-11-13T20:13:43.781Z,34.72
2022-11-13T20:16:12.915Z,32.97
2022-11-13T20:18:39.715Z,30.67
2022-11-13T20:21:06.500Z,34.42
2022-11-13T20:23:33.361Z,31.38
2022-11-13T20:26:02.541Z,33.03
2022-11-13T20:28:29.812Z,32.50
2022-11-13T20:31:12.928Z,29.23
2022-11-13T20:33:39.360Z,28.55
2022-11-13T20:36:06.141Z,29.50
2022-11-13T20:38:32.677Z,30.10
2022-11-13T20:41:04.437Z,31.43
2022-11-13T20:43:30.902Z,30.67
2022-11-13T20:46:05.334Z,29.17
2022-11-13T20:48:32.084Z,29.48
2022-11-13T20:51:05.650Z,28.48
2022-11-13T20:53:32.049Z,31.55
2022-11-13T20:55:58.461Z,27.10
2022-11-13T20:58:24.935Z,30.48
2022-11-13T21:00:51.365Z,26.98
2022-11-13T21:03:18.651Z,29.33
2022-11-13T21:05:45.066Z,29.60
2022-11-13T21:08:11.537Z,30.70
2022-11-13T21:10:38.053Z,26.60
2022-11-13T21:13:04.460Z,36.28
2022-11-13T21:15:33.444Z,27.95
2022-11-13T21:17:59.868Z,29.25
2022-11-13T21:20:26.300Z,26.42
2022-11-13T21:22:52.708Z,30.33
2022-11-13T21:25:19.782Z,25.88
2022-11-13T21:27:46.209Z,28.55
2022-11-13T21:30:12.931Z,23.67
2022-11-13T21:32:39.415Z,31.02
2022-11-13T21:35:05.971Z,28.98
2022-11-13T21:37:33.996Z,61.70
2022-11-13T21:40:00.502Z,27.20
2022-11-13T21:42:26.923Z,32.28
2022-11-13T21:44:53.406Z,26.63
2022-11-13T21:47:19.817Z,27.05
2022-11-13T21:49:46.208Z,27.35
2022-11-13T21:52:12.656Z,30.77
2022-11-13T21:54:39.086Z,27.70
2022-11-13T21:57:05.461Z,25.58
2022-11-13T21:59:32.109Z,23.08
2022-11-13T22:01:59.355Z,25.47
2022-11-13T22:04:26.167Z,30.40
2022-11-13T22:06:52.978Z,26.25
2022-11-13T22:09:25.161Z,23.70
2022-11-13T22:11:51.656Z,27.08
2022-11-13T22:14:18.350Z,21.88
2022-11-13T22:16:47.362Z,28.03
2022-11-13T22:19:22.625Z,22.30
2022-11-13T22:21:51.963Z,23.38
2022-11-13T22:24:19.635Z,23.40
2022-11-13T22:29:14.271Z,22.50
2022-11-13T22:31:40.794Z,22.05
2022-11-13T22:34:07.464Z,21.10
2022-11-13T22:36:37.233Z,23.13
2022-11-13T22:39:05.116Z,21.08
2022-11-13T22:41:34.617Z,22.17
2022-11-13T22:44:06.097Z,19.67
2022-11-13T22:46:34.660Z,21.92
2022-11-13T22:49:02.568Z,21.80
2022-11-13T22:51:41.148Z,24.52
2022-11-13T22:54:09.845Z,24.50
2022-11-13T22:56:38.088Z,22.15
2022-11-13T22:59:06.371Z,22.27
2022-11-13T23:01:34.803Z,22.63
2022-11-13T23:04:04.320Z,21.58
2022-11-13T23:06:33.215Z,19.35
2022-11-13T23:09:00.607Z,16.38
2022-11-13T23:11:30.164Z,18.98
2022-11-13T23:13:58.749Z,16.35
2022-11-13T23:16:26.597Z,21.20
2022-11-13T23:18:55.800Z,18.52
2022-11-13T23:21:23.099Z,16.38
2022-11-13T23:23:49.603Z,17.98
2022-11-13T23:26:16.654Z,17.88
2022-11-13T23:28:43.139Z,19.52
2022-11-13T23:31:10.066Z,18.00
2022-11-13T23:33:38.071Z,17.80
2022-11-13T23:36:05.659Z,17.50
2022-11-13T23:41:02.346Z,16.45
2022-11-13T23:43:54.236Z,16.35
2022-11-13T23:46:16.734Z,15.18
2022-11-13T23:48:43.141Z,16.15
2022-11-13T23:51:09.789Z,15.25
2022-11-13T23:53:36.235Z,16.07
2022-11-13T23:56:02.767Z,16.35
2022-11-13T23:58:31.051Z,15.90
